createdAt,value
2019-03-03T00:02:27.039Z,5.09
2019-03-03T00:04:58.368Z,5.01
2019-03-03T00:07:29.971Z,5.06
2019-03-03T00:10:01.213Z,5.12
2019-03-03T00:12:33.932Z,5.05
2019-03-03T00:15:05.979Z,5.05
2019-03-03T00:17:37.442Z,5.01
2019-03-03T00:20:09.582Z,4.99
2019-03-03T00:22:41.021Z,4.95
2019-03-03T00:25:12.651Z,4.90
2019-03-03T00:27:44.331Z,4.96
2019-03-03T00:30:16.177Z,4.94
2019-03-03T00:32:47.720Z,4.74
2019-03-03T00:35:19.377Z,4.75
2019-03-03T00:38:09.686Z,4.71
2019-03-03T00:40:58.325Z,4.64
2019-03-03T00:43:57.639Z,4.65
2019-03-03T00:46:50.790Z,4.59
2019-03-03T00:49:39.812Z,4.52
2019-03-03T00:52:16.729Z,4.46
2019-03-03T00:54:58.094Z,4.43
2019-03-03T00:57:54.205Z,4.31
2019-03-03T01:00:48.017Z,4.33
2019-03-03T01:03:26.215Z,4.33
2019-03-03T01:06:19.304Z,4.26
2019-03-03T01:09:22.145Z,4.29
2019-03-03T01:12:06.015Z,4.31
2019-03-03T01:14:49.504Z,4.32
2019-03-03T01:17:39.361Z,4.43
2019-03-03T01:20:16.403Z,4.49
2019-03-03T01:23:24.354Z,4.49
2019-03-03T01:25:55.983Z,4.43
2019-03-03T01:28:27.701Z,4.43
2019-03-03T01:30:59.211Z,4.28
2019-03-03T01:33:30.622Z,4.26
2019-03-03T01:36:01.998Z,4.22
2019-03-03T01:38:33.293Z,4.26
2019-03-03T01:41:06.363Z,4.20
2019-03-03T01:43:38.030Z,4.18
2019-03-03T01:46:09.627Z,4.12
2019-03-03T01:48:41.300Z,3.99
2019-03-03T01:51:12.612Z,4.01
2019-03-03T01:53:44.229Z,4.09
2019-03-03T01:56:15.776Z,4.08
2019-03-03T01:58:47.536Z,3.91
2019-03-03T02:01:19.253Z,4.00
2019-03-03T02:03:50.820Z,4.14
2019-03-03T02:06:22.556Z,4.00
2019-03-03T02:08:54.107Z,4.02
2019-03-03T02:11:25.659Z,3.93
2019-03-03T02:13:57.120Z,3.94
2019-03-03T02:16:28.687Z,3.87
2019-03-03T02:19:00.160Z,3.94
2019-03-03T02:21:31.602Z,3.83
2019-03-03T02:24:03.090Z,3.83
2019-03-03T02:26:34.583Z,3.87
2019-03-03T02:29:07.235Z,3.84
2019-03-03T02:31:38.729Z,3.88
2019-03-03T02:34:10.276Z,3.91
2019-03-03T02:36:41.849Z,4.09
2019-03-03T02:39:20.334Z,4.11
2019-03-03T02:41:51.967Z,4.20
2019-03-03T02:44:23.528Z,4.20
2019-03-03T02:46:55.077Z,4.26
2019-03-03T02:49:26.507Z,4.42
2019-03-03T02:51:57.953Z,4.46
2019-03-03T02:54:29.423Z,4.54
2019-03-03T02:57:00.951Z,4.46
2019-03-03T02:59:32.528Z,4.49
2019-03-03T03:02:08.223Z,4.52
2019-03-03T03:04:39.849Z,4.46
2019-03-03T03:07:18.801Z,4.57
2019-03-03T03:10:08.920Z,4.51
2019-03-03T03:12:57.904Z,4.48
2019-03-03T03:15:48.206Z,4.51
2019-03-03T03:18:38.270Z,4.43
2019-03-03T03:21:17.513Z,4.51
2019-03-03T03:24:17.303Z,4.49
2019-03-03T03:26:59.842Z,4.40
2019-03-03T03:29:38.213Z,4.38
2019-03-03T03:32:16.587Z,4.41
2019-03-03T03:34:59.694Z,4.32
2019-03-03T03:37:39.183Z,4.29
2019-03-03T03:40:42.030Z,4.35
2019-03-03T03:43:19.576Z,4.35
2019-03-03T03:46:02.422Z,4.32
2019-03-03T03:48:54.535Z,4.40
2019-03-03T03:52:02.842Z,4.38
2019-03-03T03:54:53.691Z,4.43
2019-03-03T03:57:31.632Z,4.54
2019-03-03T04:00:39.613Z,4.63
2019-03-03T04:03:48.075Z,4.64
2019-03-03T04:06:56.156Z,4.83
2019-03-03T04:09:41.106Z,4.89
2019-03-03T04:12:27.920Z,4.99
2019-03-03T04:15:17.261Z,4.94
2019-03-03T04:18:02.958Z,5.13
2019-03-03T04:20:52.253Z,5.22
2019-03-03T04:23:48.769Z,5.32
2019-03-03T04:26:42.070Z,5.48
2019-03-03T04:29:22.934Z,5.46
2019-03-03T04:32:14.506Z,5.39
2019-03-03T04:35:04.514Z,5.27
2019-03-03T04:38:07.399Z,5.14
2019-03-03T04:40:56.799Z,4.98
2019-03-03T04:43:37.731Z,4.76
2019-03-03T04:46:30.798Z,4.53
2019-03-03T04:49:11.842Z,4.28
2019-03-03T04:52:08.217Z,4.07
2019-03-03T04:54:58.454Z,3.88
2019-03-03T04:57:40.478Z,3.89
2019-03-03T05:00:36.083Z,3.83
2019-03-03T05:03:29.431Z,3.68
2019-03-03T05:06:18.361Z,3.67
2019-03-03T05:09:03.497Z,3.54
2019-03-03T05:12:49.768Z,3.65
2019-03-03T05:15:42.186Z,3.64
2019-03-03T05:18:21.197Z,3.61
2019-03-03T05:20:53.198Z,3.50
2019-03-03T05:23:24.751Z,3.40
2019-03-03T05:25:56.135Z,3.39
2019-03-03T05:28:27.576Z,3.50
2019-03-03T05:30:59.003Z,3.58
2019-03-03T05:33:30.579Z,3.62
2019-03-03T05:36:02.001Z,3.56
2019-03-03T05:38:33.571Z,3.52
2019-03-03T05:41:05.249Z,3.45
2019-03-03T05:43:36.529Z,3.56
2019-03-03T05:46:08.071Z,3.64
2019-03-03T05:48:39.536Z,3.72
2019-03-03T05:51:11.186Z,3.61
2019-03-03T05:53:42.796Z,3.62
2019-03-03T05:56:14.399Z,3.53
2019-03-03T05:58:45.620Z,3.52
2019-03-03T06:01:16.960Z,3.61
2019-03-03T06:03:48.144Z,3.61
2019-03-03T06:06:19.467Z,3.60
2019-03-03T06:08:50.828Z,3.65
2019-03-03T06:11:22.349Z,3.59
2019-03-03T06:13:53.869Z,3.61
2019-03-03T06:16:25.235Z,3.80
2019-03-03T06:18:56.695Z,3.94
2019-03-03T06:21:28.182Z,3.85
2019-03-03T06:23:59.639Z,3.90
2019-03-03T06:26:30.844Z,3.87
2019-03-03T06:29:02.269Z,3.87
2019-03-03T06:31:33.525Z,3.99
2019-03-03T06:34:04.923Z,4.07
2019-03-03T06:36:36.061Z,4.26
2019-03-03T06:39:08.298Z,4.24
2019-03-03T06:41:39.768Z,4.29
2019-03-03T06:44:11.283Z,4.21
2019-03-03T06:46:42.451Z,4.23
2019-03-03T06:49:13.607Z,4.38
2019-03-03T06:51:45.085Z,4.53
2019-03-03T06:54:16.668Z,4.73
2019-03-03T06:56:48.205Z,4.85
2019-03-03T06:59:19.520Z,4.76
2019-03-03T07:01:51.942Z,4.98
2019-03-03T07:04:23.121Z,5.17
2019-03-03T07:06:54.576Z,5.09
2019-03-03T07:09:25.976Z,5.15
2019-03-03T07:11:57.299Z,5.13
2019-03-03T07:14:28.564Z,5.30
2019-03-03T07:17:00.042Z,5.42
2019-03-03T07:19:31.555Z,5.44
2019-03-03T07:22:06.116Z,5.65
2019-03-03T07:24:37.491Z,5.85
2019-03-03T07:27:08.849Z,6.04
2019-03-03T07:29:41.246Z,6.14
2019-03-03T07:32:12.781Z,6.12
2019-03-03T07:34:44.147Z,6.26
2019-03-03T07:37:15.744Z,6.28
2019-03-03T07:39:47.086Z,6.26
2019-03-03T07:42:18.302Z,6.30
2019-03-03T07:44:49.894Z,6.34
2019-03-03T07:47:21.371Z,6.19
2019-03-03T07:49:52.619Z,6.30
2019-03-03T07:52:24.130Z,6.20
2019-03-03T07:54:55.542Z,6.16
2019-03-03T07:57:26.696Z,6.20
2019-03-03T07:59:57.927Z,6.20
2019-03-03T08:02:29.361Z,6.21
2019-03-03T08:05:01.130Z,6.43
2019-03-03T08:07:33.738Z,6.39
2019-03-03T08:10:05.717Z,6.59
2019-03-03T08:12:37.256Z,6.63
2019-03-03T08:15:08.637Z,6.55
2019-03-03T08:17:40.286Z,6.49
2019-03-03T08:20:11.969Z,6.55
2019-03-03T08:22:43.305Z,6.59
2019-03-03T08:25:14.893Z,6.53
2019-03-03T08:27:48.037Z,6.57
2019-03-03T08:30:19.693Z,6.49
2019-03-03T08:32:51.036Z,6.61
2019-03-03T08:35:22.570Z,6.64
2019-03-03T08:37:53.850Z,6.52
2019-03-03T08:40:25.313Z,6.58
2019-03-03T08:43:24.668Z,6.66
2019-03-03T08:46:13.734Z,6.70
2019-03-03T08:48:58.325Z,6.92
2019-03-03T08:51:44.240Z,7.11
2019-03-03T08:54:34.804Z,7.27
2019-03-03T08:57:30.907Z,7.45
2019-03-03T09:00:21.047Z,7.25
2019-03-03T09:03:14.001Z,7.47
2019-03-03T09:06:02.927Z,7.57
2019-03-03T09:08:53.313Z,7.54
2019-03-03T09:11:46.370Z,7.63
2019-03-03T09:14:44.004Z,7.48
2019-03-03T09:17:43.030Z,7.49
2019-03-03T09:20:34.039Z,7.61
2019-03-03T09:23:27.273Z,7.68
2019-03-03T09:26:18.186Z,7.77
2019-03-03T09:29:08.267Z,7.93
2019-03-03T09:31:54.919Z,8.00
2019-03-03T09:34:43.920Z,8.11
2019-03-03T09:37:39.880Z,8.22
2019-03-03T09:40:32.810Z,8.29
2019-03-03T09:43:18.867Z,8.32
2019-03-03T09:46:07.583Z,8.45
2019-03-03T09:49:02.459Z,8.20
2019-03-03T09:51:52.831Z,8.37
2019-03-03T09:54:42.011Z,8.29
2019-03-03T09:57:38.520Z,8.58
2019-03-03T10:00:28.469Z,8.77
2019-03-03T10:03:24.923Z,8.87
2019-03-03T10:06:13.768Z,8.69
2019-03-03T10:09:03.207Z,8.67
2019-03-03T10:12:04.025Z,8.80
2019-03-03T10:15:09.793Z,9.01
2019-03-03T10:18:03.150Z,9.04
2019-03-03T10:20:53.543Z,9.10
2019-03-03T10:23:55.827Z,9.06
2019-03-03T10:26:50.304Z,9.31
2019-03-03T10:29:38.289Z,9.45
2019-03-03T10:32:28.650Z,9.43
2019-03-03T10:35:27.720Z,9.40
2019-03-03T10:38:18.154Z,9.20
2019-03-03T10:41:01.670Z,9.10
2019-03-03T10:43:39.461Z,9.07
2019-03-03T10:46:28.480Z,8.89
2019-03-03T10:49:24.892Z,8.85
2019-03-03T10:52:15.282Z,8.81
2019-03-03T10:55:08.422Z,8.88
2019-03-03T10:57:54.490Z,8.63
2019-03-03T11:00:33.344Z,8.75
2019-03-03T11:03:14.839Z,8.54
2019-03-03T11:06:11.329Z,8.36
2019-03-03T11:09:00.511Z,8.60
2019-03-03T11:11:48.400Z,8.54
2019-03-03T11:14:29.035Z,8.66
2019-03-03T11:17:20.365Z,8.73
2019-03-03T11:20:16.167Z,8.86
2019-03-03T11:23:11.269Z,8.76
2019-03-03T11:26:07.715Z,8.79
2019-03-03T11:28:48.276Z,8.72
2019-03-03T11:31:47.792Z,8.86
2019-03-03T11:34:29.716Z,8.81
2019-03-03T11:37:19.942Z,8.89
2019-03-03T11:40:22.136Z,8.78
2019-03-03T11:43:02.456Z,8.84
2019-03-03T11:45:48.682Z,9.00
2019-03-03T11:48:44.115Z,8.88
2019-03-03T11:51:34.837Z,8.80
2019-03-03T11:54:12.099Z,8.89
2019-03-03T11:56:55.453Z,8.80
2019-03-03T11:59:44.601Z,8.85
2019-03-03T12:02:28.687Z,9.08
2019-03-03T12:05:16.216Z,9.07
2019-03-03T12:08:03.917Z,8.98
2019-03-03T12:10:51.367Z,8.84
2019-03-03T12:13:29.464Z,8.66
2019-03-03T12:16:17.165Z,8.51
2019-03-03T12:19:10.419Z,8.57
2019-03-03T12:21:59.394Z,8.78
2019-03-03T12:24:44.314Z,8.86
2019-03-03T12:27:32.408Z,8.94
2019-03-03T12:30:21.077Z,8.88
2019-03-03T12:33:25.345Z,9.14
2019-03-03T12:36:11.959Z,8.93
2019-03-03T12:39:02.791Z,9.11
2019-03-03T12:41:58.783Z,9.21
2019-03-03T12:44:50.772Z,9.27
2019-03-03T12:47:27.458Z,9.14
2019-03-03T12:50:19.260Z,9.07
2019-03-03T12:53:06.444Z,8.85
2019-03-03T12:55:55.213Z,8.93
2019-03-03T12:58:42.130Z,8.83
2019-03-03T13:01:49.249Z,8.73
2019-03-03T13:04:37.776Z,8.87
2019-03-03T13:07:44.889Z,8.97
2019-03-03T13:10:24.876Z,9.05
2019-03-03T13:13:19.610Z,8.91
2019-03-03T13:15:59.914Z,8.89
2019-03-03T13:18:47.116Z,8.83
2019-03-03T13:21:33.723Z,8.78
2019-03-03T13:24:37.618Z,8.55
2019-03-03T13:27:35.323Z,8.55
2019-03-03T13:30:23.396Z,8.68
2019-03-03T13:33:18.359Z,8.51
2019-03-03T13:36:09.920Z,8.47
2019-03-03T13:39:01.866Z,8.53
2019-03-03T13:41:46.926Z,8.63
2019-03-03T13:44:16.798Z,8.60
2019-03-03T13:46:46.866Z,8.31
2019-03-03T13:49:16.985Z,8.18
2019-03-03T13:51:46.881Z,8.23
2019-03-03T13:54:16.994Z,8.21
2019-03-03T13:56:48.029Z,8.24
2019-03-03T13:59:17.968Z,8.12
2019-03-03T14:01:48.513Z,8.23
2019-03-03T14:04:18.858Z,8.29
2019-03-03T14:06:49.203Z,8.32
2019-03-03T14:09:19.155Z,8.30
2019-03-03T14:11:49.497Z,8.36
2019-03-03T14:14:19.497Z,8.33
2019-03-03T14:16:49.708Z,8.32
2019-03-03T14:19:19.778Z,8.41
2019-03-03T14:21:49.948Z,8.62
2019-03-03T14:24:20.310Z,8.74
2019-03-03T14:26:50.341Z,8.95
2019-03-03T14:29:20.261Z,9.07
2019-03-03T14:31:51.624Z,8.96
2019-03-03T14:34:21.618Z,8.94
2019-03-03T14:36:51.595Z,8.91
2019-03-03T14:39:21.944Z,9.07
2019-03-03T14:41:51.847Z,9.10
2019-03-03T14:44:22.060Z,9.11
2019-03-03T14:46:52.028Z,9.03
2019-03-03T14:49:21.695Z,8.96
2019-03-03T14:51:51.538Z,9.01
2019-03-03T14:54:21.450Z,8.93
2019-03-03T14:56:51.406Z,8.94
2019-03-03T14:59:21.237Z,9.00
2019-03-03T15:01:51.940Z,9.00
2019-03-03T15:04:21.925Z,8.83
2019-03-03T15:06:52.016Z,8.75
2019-03-03T15:09:24.108Z,8.84
2019-03-03T15:11:53.926Z,8.89
2019-03-03T15:14:24.317Z,8.90
2019-03-03T15:16:54.186Z,8.90
2019-03-03T15:19:24.215Z,8.86
2019-03-03T15:21:54.356Z,8.86
2019-03-03T15:24:24.660Z,8.89
2019-03-03T15:26:54.374Z,8.68
2019-03-03T15:29:24.539Z,8.72
2019-03-03T15:31:54.600Z,8.70
2019-03-03T15:34:24.645Z,8.71
2019-03-03T15:36:54.696Z,8.67
2019-03-03T15:39:24.692Z,8.72
2019-03-03T15:41:54.732Z,8.56
2019-03-03T15:44:24.778Z,8.54
2019-03-03T15:46:54.862Z,8.48
2019-03-03T15:49:24.870Z,8.55
2019-03-03T15:51:55.810Z,8.59
2019-03-03T15:54:25.653Z,8.52
2019-03-03T15:56:55.564Z,8.57
2019-03-03T15:59:25.443Z,8.51
2019-03-03T16:01:56.500Z,8.43
2019-03-03T16:04:26.347Z,8.45
2019-03-03T16:06:56.206Z,8.50
2019-03-03T16:09:25.948Z,8.45
2019-03-03T16:11:56.036Z,8.35
2019-03-03T16:14:26.187Z,8.34
2019-03-03T16:16:56.413Z,8.31
2019-03-03T16:19:26.527Z,8.24
2019-03-03T16:21:56.509Z,8.13
2019-03-03T16:24:26.605Z,8.09
2019-03-03T16:26:56.760Z,8.14
2019-03-03T16:29:26.828Z,8.06
2019-03-03T16:31:56.996Z,8.13
2019-03-03T16:34:26.934Z,8.10
2019-03-03T16:36:56.789Z,8.02
2019-03-03T16:39:26.517Z,8.02
2019-03-03T16:41:56.554Z,7.97
2019-03-03T16:44:26.697Z,7.94
2019-03-03T16:46:56.711Z,7.90
2019-03-03T16:49:26.547Z,7.98
2019-03-03T16:51:56.766Z,8.05
2019-03-03T16:54:27.025Z,7.92
2019-03-03T16:56:56.964Z,7.86
2019-03-03T16:59:26.951Z,7.93
2019-03-03T17:01:56.781Z,7.94
2019-03-03T17:04:26.543Z,7.87
2019-03-03T17:06:56.277Z,7.79
2019-03-03T17:09:26.126Z,7.80
2019-03-03T17:11:56.208Z,7.85
2019-03-03T17:14:26.129Z,7.83
2019-03-03T17:16:57.079Z,7.80
2019-03-03T17:19:27.097Z,7.86
2019-03-03T17:21:57.150Z,7.75
2019-03-03T17:24:27.144Z,7.70
2019-03-03T17:26:57.038Z,7.74
2019-03-03T17:29:27.264Z,7.62
2019-03-03T17:31:57.256Z,7.68
2019-03-03T17:34:27.335Z,7.64
2019-03-03T17:36:57.177Z,7.61
2019-03-03T17:39:26.980Z,7.61
2019-03-03T17:41:56.843Z,7.63
2019-03-03T17:44:26.763Z,7.52
2019-03-03T17:46:56.790Z,7.55
2019-03-03T17:49:26.925Z,7.47
2019-03-03T17:51:56.928Z,7.51
2019-03-03T17:54:26.932Z,7.51
2019-03-03T17:56:56.711Z,7.54
2019-03-03T17:59:26.750Z,7.62
2019-03-03T18:01:56.574Z,7.55
2019-03-03T18:04:26.301Z,7.56
2019-03-03T18:06:56.305Z,7.61
2019-03-03T18:09:26.412Z,7.55
2019-03-03T18:11:56.180Z,7.61
2019-03-03T18:14:25.898Z,7.51
2019-03-03T18:16:55.884Z,7.50
2019-03-03T18:19:25.909Z,7.46
2019-03-03T18:21:55.920Z,7.36
2019-03-03T18:24:25.818Z,7.31
2019-03-03T18:26:55.618Z,7.25
2019-03-03T18:29:25.805Z,7.21
2019-03-03T18:31:55.568Z,7.05
2019-03-03T18:34:25.536Z,6.96
2019-03-03T18:36:55.672Z,7.03
2019-03-03T18:39:25.436Z,6.93
2019-03-03T18:41:55.158Z,6.87
2019-03-03T18:44:24.870Z,6.80
2019-03-03T18:46:54.613Z,6.77
2019-03-03T18:49:24.444Z,6.76
2019-03-03T18:51:54.269Z,6.71
2019-03-03T18:54:24.279Z,6.69
2019-03-03T18:56:54.017Z,6.69
2019-03-03T18:59:24.068Z,6.66
2019-03-03T19:01:54.793Z,6.68
2019-03-03T19:04:25.063Z,6.66
2019-03-03T19:06:54.927Z,6.63
2019-03-03T19:09:24.969Z,6.63
2019-03-03T19:11:54.991Z,6.67
2019-03-03T19:14:28.299Z,6.68
2019-03-03T19:16:57.941Z,6.65
2019-03-03T19:19:28.028Z,6.60
2019-03-03T19:21:58.148Z,6.61
2019-03-03T19:24:28.233Z,6.66
2019-03-03T19:26:58.265Z,6.59
2019-03-03T19:29:28.055Z,6.53
2019-03-03T19:31:57.960Z,6.48
2019-03-03T19:34:27.937Z,6.43
2019-03-03T19:36:57.776Z,6.41
2019-03-03T19:39:27.542Z,6.33
2019-03-03T19:41:57.573Z,6.24
2019-03-03T19:44:27.376Z,6.24
2019-03-03T19:46:57.190Z,6.26
2019-03-03T19:49:27.019Z,6.23
2019-03-03T19:51:56.834Z,6.20
2019-03-03T19:54:26.751Z,6.22
2019-03-03T19:56:56.741Z,6.26
2019-03-03T19:59:26.502Z,6.33
2019-03-03T20:01:56.478Z,6.30
2019-03-03T20:04:26.491Z,6.34
2019-03-03T20:06:56.986Z,6.36
2019-03-03T20:09:27.087Z,6.39
2019-03-03T20:11:56.941Z,6.50
2019-03-03T20:14:26.855Z,6.50
2019-03-03T20:16:56.614Z,6.46
2019-03-03T20:19:26.365Z,6.50
2019-03-03T20:21:56.245Z,6.46
2019-03-03T20:24:26.314Z,6.47
2019-03-03T20:26:56.310Z,6.40
2019-03-03T20:29:27.430Z,6.39
2019-03-03T20:31:58.221Z,6.36
2019-03-03T20:34:27.997Z,6.36
2019-03-03T20:36:59.056Z,6.39
2019-03-03T20:39:28.937Z,6.36
2019-03-03T20:41:58.998Z,6.36
2019-03-03T20:44:28.861Z,6.28
2019-03-03T20:46:58.617Z,6.28
2019-03-03T20:49:28.842Z,6.30
2019-03-03T20:51:59.888Z,6.32
2019-03-03T20:54:29.645Z,6.33
2019-03-03T20:56:59.404Z,6.37
2019-03-03T20:59:29.224Z,6.36
2019-03-03T21:01:59.056Z,6.36
2019-03-03T21:04:28.773Z,6.43
2019-03-03T21:06:58.809Z,6.43
2019-03-03T21:09:28.533Z,6.44
2019-03-03T21:11:58.294Z,6.48
2019-03-03T21:14:28.151Z,6.48
2019-03-03T21:17:01.789Z,6.44
2019-03-03T21:19:31.840Z,6.40
2019-03-03T21:22:01.795Z,6.43
2019-03-03T21:24:31.506Z,6.44
2019-03-03T21:27:01.296Z,6.40
2019-03-03T21:29:31.486Z,6.50
2019-03-03T21:32:01.263Z,6.50
2019-03-03T21:34:31.107Z,6.42
2019-03-03T21:37:01.006Z,6.43
2019-03-03T21:39:30.829Z,6.42
2019-03-03T21:42:00.856Z,6.50
2019-03-03T21:44:30.601Z,6.42
2019-03-03T21:47:00.344Z,6.42
2019-03-03T21:49:30.244Z,6.38
2019-03-03T21:52:00.002Z,6.30
2019-03-03T21:54:29.855Z,6.31
2019-03-03T21:56:59.576Z,6.28
2019-03-03T21:59:29.313Z,6.27
2019-03-03T22:01:59.122Z,6.28
2019-03-03T22:04:29.156Z,6.18
2019-03-03T22:06:59.003Z,6.11
2019-03-03T22:09:29.005Z,6.12
2019-03-03T22:11:58.766Z,6.08
2019-03-03T22:14:28.525Z,6.13
2019-03-03T22:16:58.237Z,6.14
2019-03-03T22:19:27.984Z,6.13
2019-03-03T22:21:57.759Z,6.13
2019-03-03T22:24:27.533Z,6.06
2019-03-03T22:26:57.314Z,6.00
2019-03-03T22:29:27.051Z,5.96
2019-03-03T22:31:56.826Z,5.96
2019-03-03T22:34:26.701Z,5.99
2019-03-03T22:36:56.588Z,5.93
2019-03-03T22:39:26.631Z,5.85
2019-03-03T22:41:56.706Z,5.78
2019-03-03T22:44:26.453Z,5.81
2019-03-03T22:46:56.182Z,5.76
2019-03-03T22:49:26.025Z,5.73
2019-03-03T22:51:56.033Z,5.79
2019-03-03T22:54:26.063Z,5.73
2019-03-03T22:56:55.818Z,5.72
2019-03-03T22:59:25.739Z,5.80
2019-03-03T23:01:55.849Z,5.82
2019-03-03T23:04:56.883Z,5.79
2019-03-03T23:07:29.180Z,5.76
2019-03-03T23:10:12.897Z,5.68
2019-03-03T23:12:47.815Z,5.60
2019-03-03T23:15:25.109Z,5.52
2019-03-03T23:18:07.567Z,5.55
2019-03-03T23:21:02.530Z,5.53
2019-03-03T23:23:48.712Z,5.55
2019-03-03T23:26:18.845Z,5.62
2019-03-03T23:28:48.745Z,5.60
2019-03-03T23:31:18.696Z,5.71
2019-03-03T23:33:48.579Z,5.66
2019-03-03T23:36:18.532Z,5.68
2019-03-03T23:38:48.504Z,5.68
2019-03-03T23:41:18.238Z,5.66
2019-03-03T23:43:48.406Z,5.54
2019-03-03T23:46:18.275Z,5.54
2019-03-03T23:48:48.313Z,5.27
2019-03-03T23:51:18.073Z,4.64
2019-03-03T23:53:48.028Z,4.54
2019-03-03T23:56:17.766Z,4.43
2019-03-03T23:58:47.727Z,4.15
